Time;durP1;ratioP1;P1;durP2;ratioP2;P2;SDS_P1;SDS_P2;PMS_P1;PMS_P2;Temp;Humidity;BMP_temperature;BMP_pressure;BME280_temperature;BME280_humidity;BME280_pressure;Samples;Min_cycle;Max_cycle;Signal;HPM_P1;HPM_P2
2022/07/15 00:02:26;;;;;;;6.13;3.28;;;17.10;99.90;;;;;;5053064;28;20072;-74
2022/07/15 00:04:53;;;;;;;8.15;3.58;;;17.00;99.90;;;;;;5054011;28;20045;-74
2022/07/15 00:07:20;;;;;;;8.10;3.60;;;16.90;99.90;;;;;;5053977;28;20037;-74
2022/07/15 00:12:33;;;;;;;7.45;3.80;;;16.80;99.90;;;;;;5053677;28;20049;-74
2022/07/15 00:15:00;;;;;;;9.02;3.90;;;16.70;99.90;;;;;;5053421;28;20041;-74
2022/07/15 00:17:27;;;;;;;6.40;3.80;;;16.70;99.90;;;;;;5054306;28;20043;-74
2022/07/15 00:19:54;;;;;;;7.75;4.43;;;16.60;99.90;;;;;;5053767;28;20040;-75
2022/07/15 00:22:21;;;;;;;8.25;3.63;;;16.60;99.90;;;;;;5052121;28;20067;-74
2022/07/15 00:24:48;;;;;;;7.68;4.40;;;16.60;99.90;;;;;;5054155;28;20037;-74
2022/07/15 00:27:15;;;;;;;7.55;4.13;;;16.50;99.90;;;;;;5052133;28;20119;-74
2022/07/15 00:29:42;;;;;;;7.97;3.90;;;16.40;99.90;;;;;;5053292;28;20084;-75
2022/07/15 00:32:09;;;;;;;7.70;3.83;;;16.40;99.90;;;;;;5053589;28;20041;-74
2022/07/15 00:34:36;;;;;;;6.68;3.95;;;16.40;99.90;;;;;;5053778;28;20372;-74
2022/07/15 00:37:03;;;;;;;9.15;5.18;;;16.30;99.90;;;;;;5053168;28;20127;-74
2022/07/15 00:39:30;;;;;;;9.00;5.20;;;16.30;99.90;;;;;;5053340;28;20136;-74
2022/07/15 00:41:57;;;;;;;10.52;6.03;;;16.30;99.90;;;;;;5052207;28;20052;-74
2022/07/15 00:44:25;;;;;;;8.95;4.47;;;16.20;99.90;;;;;;5052034;28;20124;-74
2022/07/15 00:46:54;;;;;;;10.13;5.60;;;16.20;99.90;;;;;;5051910;28;20053;-74
2022/07/15 00:49:22;;;;;;;10.07;5.10;;;16.20;99.90;;;;;;5052267;28;20049;-78
2022/07/15 00:51:52;;;;;;;12.85;5.47;;;16.10;99.90;;;;;;5054062;28;20434;-74
2022/07/15 00:54:24;;;;;;;12.13;6.43;;;16.10;99.90;;;;;;5035373;28;20042;-74
2022/07/15 00:56:53;;;;;;;11.43;4.70;;;16.10;99.90;;;;;;5051934;28;20051;-74
2022/07/15 00:59:21;;;;;;;7.55;3.80;;;16.10;99.90;;;;;;5052874;28;20045;-74
2022/07/15 01:01:48;;;;;;;7.90;3.88;;;16.10;99.90;;;;;;5052885;28;20056;-74
2022/07/15 01:04:17;;;;;;;7.90;4.82;;;16.10;99.90;;;;;;5035366;28;20123;-73
2022/07/15 01:06:44;;;;;;;5.68;3.80;;;16.00;99.90;;;;;;5056432;28;20061;-74
2022/07/15 01:09:11;;;;;;;6.60;4.13;;;16.00;99.90;;;;;;5056089;28;20044;-74
2022/07/15 01:11:38;;;;;;;9.07;4.82;;;15.90;99.90;;;;;;5056267;28;20061;-73
2022/07/15 01:14:05;;;;;;;11.35;4.70;;;15.90;99.90;;;;;;5056116;28;20384;-74
2022/07/15 01:16:31;;;;;;;10.60;4.38;;;15.80;99.90;;;;;;5056807;28;20128;-73
2022/07/15 01:18:59;;;;;;;6.63;3.78;;;15.80;99.90;;;;;;5056847;28;20077;-74
2022/07/15 01:21:26;;;;;;;7.88;4.40;;;15.70;99.90;;;;;;5056023;28;20080;-73
2022/07/15 01:23:52;;;;;;;9.05;5.15;;;15.70;99.90;;;;;;5057083;28;20041;-73
2022/07/15 01:26:19;;;;;;;8.55;4.85;;;15.70;99.90;;;;;;5055674;28;20049;-74
2022/07/15 01:28:47;;;;;;;8.73;5.65;;;15.60;99.90;;;;;;5056678;28;20480;-73
2022/07/15 01:31:14;;;;;;;9.52;5.80;;;15.60;99.90;;;;;;5055643;28;20045;-74
2022/07/15 01:33:42;;;;;;;13.02;8.07;;;15.60;99.90;;;;;;5056894;28;20075;-73
2022/07/15 01:36:09;;;;;;;13.27;6.07;;;15.50;99.90;;;;;;5056680;28;20037;-73
2022/07/15 01:38:36;;;;;;;10.65;6.25;;;15.50;99.90;;;;;;5056466;28;20040;-74
2022/07/15 01:41:15;;;;;;;15.60;6.18;;;15.50;99.90;;;;;;5056259;28;20048;-73
2022/07/15 01:43:42;;;;;;;13.00;7.00;;;15.50;99.90;;;;;;5056489;28;20048;-73
2022/07/15 01:46:09;;;;;;;9.60;5.97;;;15.50;99.90;;;;;;5057129;28;20443;-74
2022/07/15 01:51:21;;;;;;;11.68;6.75;;;15.40;99.90;;;;;;5056790;28;20041;-74
2022/07/15 01:53:48;;;;;;;12.25;6.28;;;15.40;99.90;;;;;;5056920;28;20110;-73
2022/07/15 01:56:15;;;;;;;11.80;6.68;;;15.40;99.90;;;;;;5054921;28;20120;-74
2022/07/15 01:58:43;;;;;;;14.93;7.55;;;15.30;99.90;;;;;;5056899;28;20041;-74
2022/07/15 02:01:10;;;;;;;12.20;7.20;;;15.20;99.90;;;;;;5054424;28;20045;-73
2022/07/15 02:03:37;;;;;;;11.85;7.80;;;15.20;99.90;;;;;;5054804;28;20077;-73
2022/07/15 02:06:05;;;;;;;14.35;8.10;;;15.10;99.90;;;;;;5056502;28;20095;-74
2022/07/15 02:08:32;;;;;;;12.85;7.95;;;15.00;99.90;;;;;;5055850;28;20045;-74
2022/07/15 02:10:59;;;;;;;15.05;8.27;;;15.00;99.90;;;;;;5054933;28;20131;-73
2022/07/15 02:13:26;;;;;;;15.63;7.38;;;15.00;99.90;;;;;;5054579;28;20051;-73
2022/07/15 02:15:53;;;;;;;10.40;6.57;;;15.00;99.90;;;;;;5055829;28;20072;-74
2022/07/15 02:18:20;;;;;;;9.32;7.30;;;14.90;99.90;;;;;;5053401;28;20425;-74
2022/07/15 02:20:47;;;;;;;10.05;6.72;;;14.90;99.90;;;;;;5055610;28;20094;-73
2022/07/15 02:23:14;;;;;;;11.05;6.40;;;14.90;99.90;;;;;;5054214;28;20491;-73
2022/07/15 02:25:41;;;;;;;11.70;7.00;;;14.90;99.90;;;;;;5054384;28;20132;-74
2022/07/15 02:28:08;;;;;;;11.55;7.07;;;14.80;99.90;;;;;;5055395;28;20132;-74
2022/07/15 02:30:37;;;;;;;10.10;7.50;;;14.80;99.90;;;;;;5054102;28;20053;-74
2022/07/15 02:33:05;;;;;;;9.35;6.60;;;14.80;99.90;;;;;;5056213;28;20052;-74
2022/07/15 02:35:32;;;;;;;10.73;6.65;;;14.70;99.90;;;;;;5054022;28;20047;-74
2022/07/15 02:37:59;;;;;;;10.98;7.03;;;14.70;99.90;;;;;;5055500;28;20045;-73
2022/07/15 02:40:26;;;;;;;14.05;7.00;;;14.70;99.90;;;;;;5054751;28;20052;-73
2022/07/15 02:42:55;;;;;;;7.10;4.25;;;14.70;99.90;;;;;;5055869;28;20056;-73
2022/07/15 02:45:23;;;;;;;7.10;2.75;;;14.80;99.90;;;;;;5053876;28;20473;-73
2022/07/15 02:47:51;;;;;;;4.70;2.37;;;14.80;99.90;;;;;;5054098;28;20488;-73
2022/07/15 02:50:18;;;;;;;8.95;2.50;;;14.80;99.90;;;;;;5055490;28;20625;-74
2022/07/15 02:52:45;;;;;;;2.63;1.73;;;14.90;99.90;;;;;;5054896;28;20378;-74
2022/07/15 02:55:12;;;;;;;3.72;1.70;;;15.00;99.90;;;;;;5053663;28;20532;-73
2022/07/15 02:57:39;;;;;;;4.18;1.90;;;15.00;99.90;;;;;;5055898;28;20048;-73
2022/07/15 03:00:12;;;;;;;3.60;1.70;;;15.00;99.90;;;;;;5054761;28;20045;-73
2022/07/15 03:02:39;;;;;;;4.97;1.58;;;15.10;99.90;;;;;;5054978;28;20102;-74
2022/07/15 03:05:07;;;;;;;3.65;1.90;;;15.10;99.90;;;;;;5053751;28;20048;-73
2022/07/15 03:07:33;;;;;;;4.13;2.35;;;15.10;99.90;;;;;;5054929;28;20084;-74
2022/07/15 03:10:01;;;;;;;4.05;2.10;;;15.10;99.90;;;;;;5053656;28;20144;-73
2022/07/15 03:12:29;;;;;;;5.47;1.70;;;15.10;99.90;;;;;;5053600;28;20041;-73
2022/07/15 03:14:55;;;;;;;6.40;2.00;;;15.10;99.90;;;;;;5053622;28;20124;-74
2022/07/15 03:17:23;;;;;;;3.08;1.58;;;15.10;99.90;;;;;;5054508;28;20126;-73
2022/07/15 03:19:49;;;;;;;3.38;1.95;;;15.10;99.90;;;;;;5054464;28;20048;-73
2022/07/15 03:22:16;;;;;;;6.22;2.58;;;15.10;99.90;;;;;;5054598;28;20045;-73
2022/07/15 03:24:43;;;;;;;5.47;2.38;;;15.10;99.90;;;;;;5055099;28;20059;-74
2022/07/15 03:27:10;;;;;;;6.25;1.80;;;15.10;99.90;;;;;;5037516;28;20081;-74
2022/07/15 03:29:37;;;;;;;4.35;1.77;;;15.00;99.90;;;;;;5052700;28;20076;-74
2022/07/15 03:32:05;;;;;;;3.53;1.80;;;15.00;99.90;;;;;;5052985;28;20136;-74
2022/07/15 03:34:32;;;;;;;2.95;1.67;;;14.90;99.90;;;;;;5053242;28;20380;-74
2022/07/15 03:36:59;;;;;;;4.85;1.90;;;14.80;99.90;;;;;;5055040;28;20369;-74
2022/07/15 03:39:26;;;;;;;3.03;1.85;;;14.70;99.90;;;;;;5054265;28;20084;-74
2022/07/15 03:41:53;;;;;;;4.95;2.20;;;14.60;99.90;;;;;;5054267;28;20047;-73
2022/07/15 03:44:20;;;;;;;3.13;2.35;;;14.50;99.90;;;;;;5053951;28;20041;-74
2022/07/15 03:46:47;;;;;;;7.07;3.35;;;14.50;99.90;;;;;;5054944;28;20056;-73
2022/07/15 03:49:14;;;;;;;5.00;3.38;;;14.40;99.90;;;;;;5052980;28;20106;-74
2022/07/15 03:51:42;;;;;;;6.30;3.83;;;14.40;99.90;;;;;;5052856;28;20045;-74
2022/07/15 03:54:09;;;;;;;7.32;3.60;;;14.30;99.90;;;;;;5053616;28;20049;-74
2022/07/15 03:56:36;;;;;;;6.82;3.42;;;14.30;99.90;;;;;;5054421;28;20051;-74
2022/07/15 03:59:03;;;;;;;5.38;3.85;;;14.30;99.90;;;;;;5052758;28;20069;-74
2022/07/15 04:01:30;;;;;;;8.13;3.40;;;14.20;99.90;;;;;;5053787;28;20037;-74
2022/07/15 04:03:57;;;;;;;6.38;3.05;;;14.20;99.90;;;;;;5053857;28;20464;-73
2022/07/15 04:06:24;;;;;;;8.55;3.95;;;14.10;99.90;;;;;;5052636;28;20425;-74
2022/07/15 04:08:51;;;;;;;4.85;3.20;;;14.10;99.90;;;;;;5053773;28;20060;-73
2022/07/15 04:11:18;;;;;;;5.78;3.85;;;14.00;99.90;;;;;;5054048;28;20384;-74
2022/07/15 04:13:46;;;;;;;5.68;3.10;;;14.00;99.90;;;;;;5052373;28;20044;-73
2022/07/15 04:16:14;;;;;;;6.32;3.30;;;14.00;99.90;;;;;;5052381;28;20041;-74
2022/07/15 04:18:41;;;;;;;6.78;3.63;;;13.90;99.90;;;;;;5054225;28;20041;-73
2022/07/15 04:21:08;;;;;;;4.68;3.33;;;14.00;99.90;;;;;;5052305;28;20044;-73
2022/07/15 04:23:35;;;;;;;5.63;3.35;;;13.90;99.90;;;;;;5053090;28;20049;-74
2022/07/15 04:26:03;;;;;;;10.30;4.38;;;13.90;99.90;;;;;;5053497;28;20056;-74
2022/07/15 04:28:30;;;;;;;5.10;3.88;;;13.90;99.90;;;;;;5035844;28;20045;-74
2022/07/15 04:30:56;;;;;;;8.10;3.35;;;13.90;99.90;;;;;;5051902;28;20045;-74
2022/07/15 04:33:23;;;;;;;6.13;3.80;;;13.80;99.90;;;;;;5051888;28;20056;-74
2022/07/15 04:35:50;;;;;;;6.55;3.95;;;13.80;99.90;;;;;;5053097;28;20037;-74
2022/07/15 04:38:17;;;;;;;7.05;3.92;;;13.80;99.90;;;;;;5053886;28;20103;-74
2022/07/15 04:40:44;;;;;;;8.32;4.22;;;13.80;99.90;;;;;;5052984;28;20053;-74
2022/07/15 04:43:11;;;;;;;5.78;3.85;;;13.80;99.90;;;;;;5051684;28;20041;-74
2022/07/15 04:45:38;;;;;;;11.27;4.70;;;13.80;99.90;;;;;;5052903;28;20067;-74
2022/07/15 04:50:45;;;;;;;5.85;3.00;;;13.90;99.90;;;;;;5053294;28;20052;-74
2022/07/15 04:50:53;;;;;;;6.50;4.57;;;14.10;99.90;;;;;;5053429;28;20048;-75
2022/07/15 04:53:20;;;;;;;6.47;3.78;;;14.50;99.90;;;;;;5051831;28;20041;-75
2022/07/15 04:55:47;;;;;;;6.53;3.30;;;15.00;99.90;;;;;;5051732;28;20051;-74
2022/07/15 04:58:14;;;;;;;4.80;3.28;;;15.60;99.90;;;;;;5035612;28;20392;-74
2022/07/15 05:00:45;;;;;;;7.53;3.65;;;16.20;99.90;;;;;;5052904;28;20044;-74
2022/07/15 05:03:12;;;;;;;5.30;2.90;;;16.70;99.90;;;;;;5052509;28;20417;-74
2022/07/15 05:05:39;;;;;;;4.00;2.40;;;17.30;99.90;;;;;;5035234;28;20079;-74
2022/07/15 05:08:06;;;;;;;5.47;2.80;;;17.80;99.90;;;;;;5053164;28;20044;-74
2022/07/15 05:10:34;;;;;;;7.45;2.50;;;18.30;99.90;;;;;;5053242;28;20127;-74
2022/07/15 05:13:02;;;;;;;4.97;3.38;;;18.80;99.90;;;;;;5052502;28;20048;-74
2022/07/15 05:15:29;;;;;;;5.17;2.83;;;19.30;99.90;;;;;;5053711;28;20049;-74
2022/07/15 05:17:56;;;;;;;3.95;2.45;;;19.70;99.90;;;;;;5051918;28;20040;-74
2022/07/15 05:20:23;;;;;;;4.22;2.42;;;20.20;99.90;;;;;;5052778;28;20072;-74
2022/07/15 05:22:50;;;;;;;4.53;2.17;;;20.50;99.90;;;;;;5051822;28;20052;-75
2022/07/15 05:25:17;;;;;;;3.92;2.47;;;21.00;99.90;;;;;;5053017;28;20041;-73
2022/07/15 05:27:44;;;;;;;4.38;2.40;;;21.30;99.90;;;;;;5052671;28;20045;-73
2022/07/15 05:30:12;;;;;;;5.70;2.42;;;21.50;99.90;;;;;;5051719;28;20049;-72
2022/07/15 05:32:39;;;;;;;4.38;2.03;;;21.70;99.90;;;;;;5051489;28;20121;-73
2022/07/15 05:35:07;;;;;;;6.20;2.40;;;21.90;99.90;;;;;;5052989;28;20051;-73
2022/07/15 05:37:37;;;;;;;5.55;2.60;;;21.90;99.90;;;;;;5051783;28;20052;-73
2022/07/15 05:40:06;;;;;;;5.15;2.20;;;22.00;99.80;;;;;;5052360;28;20076;-73
2022/07/15 05:42:33;;;;;;;4.10;2.38;;;21.90;99.60;;;;;;5052483;28;20041;-73
2022/07/15 05:45:00;;;;;;;3.80;2.58;;;21.70;99.10;;;;;;5052775;28;20483;-73
2022/07/15 05:47:27;;;;;;;5.55;2.30;;;21.50;99.50;;;;;;5052551;28;20136;-73
2022/07/15 05:49:55;;;;;;;3.85;2.28;;;21.50;99.90;;;;;;5051211;28;20124;-73
2022/07/15 05:52:22;;;;;;;3.40;2.33;;;21.40;99.90;;;;;;5053847;28;20044;-74
2022/07/15 05:54:48;;;;;;;5.57;3.20;;;21.40;99.90;;;;;;5056432;28;20045;-73
2022/07/15 05:57:15;;;;;;;5.15;2.92;;;21.50;99.50;;;;;;5055747;28;20139;-73
2022/07/15 05:59:43;;;;;;;6.97;3.03;;;21.50;99.40;;;;;;5055383;28;20053;-73
2022/07/15 06:02:10;;;;;;;4.38;2.65;;;21.40;99.10;;;;;;5056344;28;20056;-73
2022/07/15 06:04:37;;;;;;;5.45;2.50;;;21.40;99.20;;;;;;5056297;28;20496;-74
2022/07/15 06:07:06;;;;;;;34.88;29.33;;;21.20;99.10;;;;;;5056547;28;20045;-77
2022/07/15 06:09:33;;;;;;;8.35;4.82;;;21.00;99.50;;;;;;5054842;28;20041;-63
2022/07/15 06:12:00;;;;;;;6.57;2.78;;;21.00;99.50;;;;;;5055890;28;20052;-63
2022/07/15 06:14:26;;;;;;;7.50;2.47;;;20.90;99.90;;;;;;5056141;28;20040;-63
2022/07/15 06:17:02;;;;;;;7.97;2.80;;;20.80;99.80;;;;;;5055689;28;20048;-63
2022/07/15 06:19:29;;;;;;;3.78;2.45;;;20.80;99.90;;;;;;5055951;28;20048;-64
2022/07/15 06:21:56;;;;;;;5.10;2.53;;;20.60;99.90;;;;;;5055568;28;20499;-66
2022/07/15 06:24:23;;;;;;;5.50;2.97;;;20.60;99.90;;;;;;5055467;28;20114;-65
2022/07/15 06:26:51;;;;;;;3.95;2.20;;;20.60;99.90;;;;;;5055647;28;20091;-63
2022/07/15 06:29:18;;;;;;;31.52;26.70;;;20.50;99.90;;;;;;5055054;28;20135;-63
2022/07/15 06:31:44;;;;;;;9.63;6.40;;;20.40;99.90;;;;;;5055124;28;20037;-67
2022/07/15 06:34:11;;;;;;;4.18;2.83;;;20.20;99.90;;;;;;5055501;28;20044;-67
2022/07/15 06:36:38;;;;;;;7.85;3.08;;;20.30;99.90;;;;;;5055442;28;20491;-68
2022/07/15 06:39:05;;;;;;;3.45;2.13;;;20.20;99.90;;;;;;5054572;28;20461;-64
2022/07/15 06:41:32;;;;;;;3.47;1.83;;;20.20;99.90;;;;;;5055328;28;20469;-66
2022/07/15 06:44:00;;;;;;;6.70;2.08;;;20.20;99.90;;;;;;5054995;28;20044;-66
2022/07/15 06:46:27;;;;;;;4.05;1.77;;;20.10;99.90;;;;;;5054024;28;20051;-66
2022/07/15 06:48:54;;;;;;;3.20;1.70;;;20.00;99.90;;;;;;5054191;28;20080;-66
2022/07/15 06:51:21;;;;;;;5.22;2.20;;;20.00;99.90;;;;;;5053818;28;20044;-66
2022/07/15 06:53:48;;;;;;;5.35;2.05;;;20.00;99.90;;;;;;5055256;28;20460;-66
2022/07/15 06:56:16;;;;;;;5.83;2.20;;;19.80;99.90;;;;;;5055954;28;20051;-67
2022/07/15 06:58:44;;;;;;;4.03;2.10;;;19.90;99.90;;;;;;5054848;28;20075;-65
2022/07/15 07:01:11;;;;;;;3.90;2.15;;;19.90;99.90;;;;;;5055197;28;20048;-64
2022/07/15 07:03:38;;;;;;;3.88;1.70;;;19.90;99.90;;;;;;5054240;28;20081;-64
2022/07/15 07:06:26;;;;;;;5.53;2.13;;;19.90;99.90;;;;;;5054822;28;20051;-65
2022/07/15 07:08:53;;;;;;;6.65;2.35;;;20.00;99.90;;;;;;5053514;28;20484;-64
2022/07/15 07:11:20;;;;;;;5.82;2.38;;;20.00;99.90;;;;;;5053478;28;20045;-62
2022/07/15 07:13:47;;;;;;;7.43;1.70;;;19.90;99.90;;;;;;5055417;28;20045;-62
2022/07/15 07:16:14;;;;;;;5.95;2.78;;;19.80;99.90;;;;;;5054627;28;20044;-64
2022/07/15 07:18:42;;;;;;;4.05;2.10;;;19.80;99.90;;;;;;5055528;28;20048;-63
2022/07/15 07:21:09;;;;;;;4.38;2.03;;;19.90;99.90;;;;;;5054768;28;20385;-63
2022/07/15 07:23:38;;;;;;;5.38;2.20;;;19.90;99.90;;;;;;5054315;28;20560;-64
2022/07/15 07:26:05;;;;;;;;;;;19.90;99.90;;;;;;5053823;28;20064;-64
2022/07/15 07:28:32;;;;;;;3.80;2.13;;;19.90;99.90;;;;;;5087367;28;19917;-63
2022/07/15 07:31:00;;;;;;;6.82;3.05;;;20.00;99.90;;;;;;5054501;28;20045;-63
2022/07/15 07:33:27;;;;;;;56.67;51.10;;;20.00;99.90;;;;;;5036566;28;20160;-65
2022/07/15 07:35:54;;;;;;;8.48;7.18;;;20.10;99.90;;;;;;5053792;28;20041;-63
2022/07/15 07:38:21;;;;;;;7.82;3.30;;;20.10;99.90;;;;;;5054491;28;20047;-64
2022/07/15 07:40:48;;;;;;;5.97;2.75;;;20.20;99.90;;;;;;5054764;28;20470;-63
2022/07/15 07:43:17;;;;;;;5.57;2.45;;;20.30;99.90;;;;;;5054012;28;20427;-63
2022/07/15 07:45:44;;;;;;;4.70;2.10;;;20.30;99.90;;;;;;5052843;28;20041;-63
2022/07/15 07:48:11;;;;;;;6.07;2.50;;;20.30;99.90;;;;;;5054382;28;20091;-63
2022/07/15 07:50:39;;;;;;;4.05;1.90;;;20.30;99.90;;;;;;5053318;28;20040;-69
2022/07/15 07:53:06;;;;;;;4.47;2.22;;;20.30;99.90;;;;;;5052886;28;20048;-76
2022/07/15 07:55:33;;;;;;;5.53;2.40;;;20.40;99.90;;;;;;5053112;28;20044;-76
2022/07/15 07:58:01;;;;;;;6.00;2.10;;;20.50;99.90;;;;;;5052779;28;20542;-77
2022/07/15 08:00:28;;;;;;;7.93;2.40;;;20.50;99.90;;;;;;5054849;28;20070;-74
2022/07/15 08:02:55;;;;;;;7.28;2.92;;;20.50;99.90;;;;;;5052479;28;20040;-75
2022/07/15 08:05:23;;;;;;;83.18;73.57;;;20.50;99.60;;;;;;5052957;28;20048;-77
2022/07/15 08:07:51;;;;;;;53.17;47.73;;;20.50;99.50;;;;;;5053980;28;20041;-78
2022/07/15 08:10:19;;;;;;;13.32;11.82;;;20.60;99.50;;;;;;5052523;28;20326;-72
2022/07/15 08:12:46;;;;;;;8.02;6.10;;;20.50;99.20;;;;;;5052666;28;20040;-79
2022/07/15 08:15:13;;;;;;;6.63;3.50;;;20.60;99.90;;;;;;5053729;28;20047;-76
2022/07/15 08:17:40;;;;;;;6.95;2.72;;;20.60;98.80;;;;;;5053796;28;20045;-73
2022/07/15 08:20:08;;;;;;;5.00;2.30;;;20.70;99.90;;;;;;5053675;28;20484;-68
2022/07/15 08:22:36;;;;;;;5.70;2.20;;;20.80;98.70;;;;;;5052233;28;20068;-66
2022/07/15 08:25:03;;;;;;;4.28;1.90;;;20.80;98.30;;;;;;5054299;28;20041;-65
2022/07/15 08:27:30;;;;;;;5.90;1.83;;;20.80;99.50;;;;;;5036495;28;20052;-69
2022/07/15 08:29:57;;;;;;;4.60;2.25;;;20.90;99.00;;;;;;5053045;28;20048;-73
2022/07/15 08:32:24;;;;;;;3.22;2.00;;;20.90;99.90;;;;;;5052177;28;20123;-68
2022/07/15 08:34:51;;;;;;;7.00;2.67;;;20.90;98.00;;;;;;5052762;28;20041;-70
2022/07/15 08:37:18;;;;;;;5.82;2.30;;;20.80;98.20;;;;;;5052142;28;20057;-72
2022/07/15 08:39:45;;;;;;;5.10;2.05;;;20.80;97.90;;;;;;5051812;28;20060;-76
2022/07/15 08:42:13;;;;;;;5.75;3.00;;;20.80;98.40;;;;;;5051674;28;20041;-69
2022/07/15 08:44:40;;;;;;;5.75;2.13;;;20.80;97.40;;;;;;5053861;28;20041;-68
2022/07/15 08:47:07;;;;;;;4.57;1.80;;;20.90;99.00;;;;;;5051776;28;20041;-69
2022/07/15 08:49:57;;;;;;;4.78;1.77;;;20.90;96.90;;;;;;5051960;28;20088;-69
2022/07/15 08:52:25;;;;;;;4.07;1.70;;;20.80;96.20;;;;;;5051928;28;20056;-71
2022/07/15 08:54:52;;;;;;;8.13;2.47;;;20.80;96.80;;;;;;5051993;28;20052;-69
2022/07/15 08:57:19;;;;;;;5.80;2.25;;;20.90;96.30;;;;;;5052006;28;20464;-70
2022/07/15 08:59:46;;;;;;;4.53;1.75;;;20.90;95.40;;;;;;5051847;28;20055;-72
2022/07/15 09:02:14;;;;;;;3.50;2.17;;;20.90;94.60;;;;;;5052453;28;20073;-67
2022/07/15 09:05:15;;;;;;;5.18;2.20;;;20.80;94.50;;;;;;5051496;28;20037;-64
2022/07/15 09:08:03;;;;;;;4.75;2.17;;;20.80;95.70;;;;;;5052930;28;20044;-67
2022/07/15 09:10:50;;;;;;;5.47;1.93;;;20.80;94.40;;;;;;5053363;28;20045;-71
2022/07/15 09:13:38;;;;;;;4.35;2.00;;;20.70;94.80;;;;;;5052524;28;20079;-68
2022/07/15 09:16:09;;;;;;;5.97;1.92;;;20.70;93.90;;;;;;5052865;28;20045;-66
2022/07/15 09:18:41;;;;;;;4.60;2.47;;;20.60;94.40;;;;;;5051355;28;20132;-68
2022/07/15 09:21:19;;;;;;;4.63;1.70;;;20.60;95.30;;;;;;5051627;28;20049;-68
2022/07/15 09:23:46;;;;;;;3.50;1.85;;;20.60;94.30;;;;;;5035365;28;20056;-66
2022/07/15 09:26:33;;;;;;;4.68;2.33;;;20.60;94.50;;;;;;5052545;28;20049;-69
2022/07/15 09:29:00;;;;;;;5.45;1.60;;;20.70;92.70;;;;;;5056243;28;20044;-68
2022/07/15 09:34:24;;;;;;;2.97;1.25;;;20.80;94.10;;;;;;5056894;28;20078;-64
2022/07/15 09:36:54;;;;;;;6.22;2.08;;;20.90;93.40;;;;;;5039126;28;20044;-67
2022/07/15 09:39:22;;;;;;;4.63;1.52;;;20.80;93.50;;;;;;5055537;28;20224;-62
2022/07/15 09:41:50;;;;;;;2.55;1.50;;;20.90;92.50;;;;;;5055083;28;20114;-65
2022/07/15 09:44:17;;;;;;;5.20;1.45;;;20.90;91.10;;;;;;5055018;28;20049;-68
2022/07/15 09:46:49;;;;;;;6.85;1.88;;;20.90;91.60;;;;;;5055676;28;20098;-65
2022/07/15 09:49:32;;;;;;;3.95;1.80;;;20.80;90.40;;;;;;5055378;28;20045;-65
2022/07/15 09:52:07;;;;;;;2.72;1.48;;;20.70;91.00;;;;;;5056007;28;20045;-64
2022/07/15 09:54:36;;;;;;;4.57;1.50;;;20.70;90.70;;;;;;5039094;28;20071;-66
2022/07/15 09:57:04;;;;;;;4.50;1.50;;;20.80;91.20;;;;;;5054943;28;20461;-65
2022/07/15 09:59:31;;;;;;;3.30;1.38;;;20.70;90.60;;;;;;5038517;28;20043;-73
2022/07/15 10:02:07;;;;;;;4.05;2.08;;;20.80;91.00;;;;;;5054421;28;20063;-66
2022/07/15 10:04:35;;;;;;;3.22;1.63;;;20.90;90.40;;;;;;5055800;28;20087;-66
2022/07/15 10:07:04;;;;;;;2.70;1.40;;;20.90;90.70;;;;;;5054995;28;20041;-64
2022/07/15 10:09:51;;;;;;;5.68;2.00;;;20.90;91.60;;;;;;5055695;28;20083;-68
2022/07/15 10:12:20;;;;;;;2.58;1.45;;;21.10;90.60;;;;;;5054427;28;20056;-66
2022/07/15 10:15:05;;;;;;;;;;;21.20;90.20;;;;;;5055155;28;20136;-67
2022/07/15 10:17:55;;;;;;;4.63;1.85;;;21.20;86.80;;;;;;5055742;28;19917;-65
2022/07/15 10:20:51;;;;;;;3.78;1.92;;;21.40;89.80;;;;;;5054482;28;20041;-68
2022/07/15 10:23:42;;;;;;;4.07;1.83;;;21.40;83.80;;;;;;5055730;28;20136;-69
2022/07/15 10:26:34;;;;;;;4.13;1.45;;;21.30;83.20;;;;;;5054394;28;20049;-71
2022/07/15 10:29:05;;;;;;;3.47;1.40;;;21.40;82.30;;;;;;5056840;28;20045;-67
2022/07/15 10:31:34;;;;;;;2.97;1.38;;;21.50;81.10;;;;;;5038829;28;20041;-67
2022/07/15 10:34:07;;;;;;;2.53;1.50;;;21.50;81.60;;;;;;5038797;28;20352;-66
2022/07/15 10:36:40;;;;;;;5.07;1.80;;;21.50;82.50;;;;;;5055866;28;20087;-69
2022/07/15 10:39:08;;;;;;;5.63;1.92;;;21.60;80.50;;;;;;5052896;28;20045;-67
2022/07/15 10:41:56;;;;;;;6.07;1.20;;;21.60;81.40;;;;;;5055058;28;20041;-65
2022/07/15 10:44:27;;;;;;;3.00;1.40;;;21.70;79.10;;;;;;5055937;28;20132;-68
2022/07/15 10:47:12;;;;;;;4.65;1.38;;;21.80;81.10;;;;;;5054846;28;20059;-66
2022/07/15 10:49:41;;;;;;;6.55;5.50;;;21.90;77.50;;;;;;5055401;28;20178;-64
2022/07/15 10:52:16;;;;;;;33.13;24.42;;;21.90;78.60;;;;;;5055036;28;20102;-64
2022/07/15 10:54:50;;;;;;;9.68;7.15;;;22.00;80.30;;;;;;5055263;28;20045;-66
2022/07/15 10:57:19;;;;;;;9.88;5.85;;;22.10;77.10;;;;;;5055079;28;20044;-63
2022/07/15 10:59:54;;;;;;;3.65;1.92;;;22.20;77.50;;;;;;5054915;28;20045;-63
2022/07/15 11:02:25;;;;;;;4.15;1.60;;;22.10;75.70;;;;;;5054064;28;20052;-63
2022/07/15 11:04:54;;;;;;;3.63;1.80;;;22.20;76.00;;;;;;5053532;28;20071;-67
2022/07/15 11:07:24;;;;;;;4.18;1.83;;;22.30;74.80;;;;;;5053855;28;20396;-68
2022/07/15 11:10:03;;;;;;;2.60;1.83;;;22.30;73.80;;;;;;5053504;28;20041;-68
2022/07/15 11:12:31;;;;;;;3.47;1.40;;;22.30;73.60;;;;;;5055160;28;20090;-71
2022/07/15 11:15:11;;;;;;;2.90;1.13;;;22.30;72.60;;;;;;5054543;28;20056;-64
2022/07/15 11:17:42;;;;;;;6.22;1.60;;;22.40;73.30;;;;;;5054255;28;20048;-66
2022/07/15 11:20:11;;;;;;;3.35;1.60;;;22.50;74.20;;;;;;5054795;28;20485;-68
2022/07/15 11:22:43;;;;;;;5.30;1.60;;;22.70;76.60;;;;;;5053616;28;20041;-77
2022/07/15 11:25:37;;;;;;;2.42;1.30;;;22.80;75.10;;;;;;5053833;28;20365;-70
2022/07/15 11:28:11;;;;;;;12.98;5.28;;;22.90;73.30;;;;;;5052331;28;20124;-73
2022/07/15 11:30:39;;;;;;;3.90;1.88;;;23.00;73.20;;;;;;5055021;28;20475;-73
2022/07/15 11:33:09;;;;;;;2.37;1.37;;;23.10;73.40;;;;;;5053393;28;20056;-76
2022/07/15 11:35:44;;;;;;;4.35;1.38;;;23.10;71.90;;;;;;5053104;28;20328;-73
2022/07/15 11:38:13;;;;;;;4.47;2.28;;;23.20;71.80;;;;;;5054080;28;20045;-73
2022/07/15 11:46:22;;;;;;;3.58;1.75;;;23.50;71.40;;;;;;5054793;28;20037;-74
2022/07/15 11:48:50;;;;;;;2.90;1.20;;;23.60;69.30;;;;;;5052861;28;20135;-74
2022/07/15 11:51:23;;;;;;;4.43;1.67;;;23.80;71.80;;;;;;5052699;28;20472;-73
2022/07/15 11:53:50;;;;;;;2.67;1.75;;;23.90;68.50;;;;;;5053733;28;20136;-69
2022/07/15 11:56:17;;;;;;;4.82;1.67;;;24.10;70.00;;;;;;5052886;28;20048;-71
2022/07/15 11:58:49;;;;;;;5.10;1.60;;;24.10;70.40;;;;;;5052561;28;20047;-69
2022/07/15 12:01:17;;;;;;;8.88;1.73;;;24.30;69.90;;;;;;5052694;28;20045;-73
2022/07/15 12:03:49;;;;;;;3.47;1.45;;;24.40;69.80;;;;;;5052921;28;20453;-69
2022/07/15 12:06:20;;;;;;;1.80;1.33;;;24.40;67.00;;;;;;5052386;28;20045;-71
2022/07/15 12:08:49;;;;;;;3.00;1.65;;;24.50;67.10;;;;;;5054614;28;20056;-70
2022/07/15 12:11:30;;;;;;;8.25;1.50;;;24.40;67.80;;;;;;5053667;28;20432;-66
2022/07/15 12:14:05;;;;;;;5.10;1.45;;;24.50;67.20;;;;;;5052326;28;20049;-70
2022/07/15 12:16:39;;;;;;;3.53;1.65;;;24.60;66.70;;;;;;5052516;28;20052;-68
2022/07/15 12:19:16;;;;;;;3.55;1.35;;;24.70;66.00;;;;;;5054253;28;20534;-69
2022/07/15 12:21:44;;;;;;;5.38;1.75;;;24.80;65.20;;;;;;5053115;28;20045;-64
2022/07/15 12:24:12;;;;;;;58.08;52.00;;;24.80;64.80;;;;;;5052088;28;20480;-79
2022/07/15 12:26:55;;;;;;;10.05;9.02;;;24.80;65.10;;;;;;5053348;28;20055;-65
2022/07/15 12:29:24;;;;;;;7.45;4.65;;;24.80;64.00;;;;;;5053281;28;20150;-66
2022/07/15 12:32:13;;;;;;;6.22;2.42;;;24.90;65.50;;;;;;5052203;28;20044;-65
2022/07/15 12:34:46;;;;;;;4.13;1.58;;;25.10;64.80;;;;;;5053010;28;20045;-66
2022/07/15 12:37:26;;;;;;;4.30;1.60;;;25.20;61.60;;;;;;5053131;28;20045;-66
2022/07/15 12:39:59;;;;;;;4.85;1.92;;;25.10;61.90;;;;;;5051786;28;20040;-65
2022/07/15 12:42:37;;;;;;;2.78;1.60;;;25.00;64.00;;;;;;5053240;28;20310;-66
2022/07/15 12:45:12;;;;;;;3.03;1.40;;;25.00;61.30;;;;;;5053916;28;20132;-65
2022/07/15 12:48:02;;;;;;;3.72;1.35;;;25.00;61.30;;;;;;5051758;28;20102;-66
2022/07/15 12:50:48;;;;;;;3.65;1.85;;;25.10;63.60;;;;;;5035840;28;20080;-65
2022/07/15 12:53:23;;;;;;;3.28;1.73;;;25.30;63.00;;;;;;5051981;28;20041;-65
2022/07/15 12:55:56;;;;;;;4.10;2.30;;;25.40;61.20;;;;;;5052882;28;20045;-65
2022/07/15 12:58:24;;;;;;;7.43;2.30;;;25.60;63.80;;;;;;5052372;28;20037;-66
2022/07/15 13:00:51;;;;;;;6.50;2.30;;;25.60;63.10;;;;;;5051816;28;20045;-61
2022/07/15 13:03:19;;;;;;;23.88;21.42;;;25.80;63.90;;;;;;5051939;28;20037;-73
2022/07/15 13:05:58;;;;;;;12.32;11.07;;;25.90;61.50;;;;;;5051475;28;20068;-74
2022/07/15 13:08:26;;;;;;;3.58;2.75;;;26.00;63.30;;;;;;5052814;28;20080;-65
2022/07/15 13:10:55;;;;;;;3.60;2.38;;;26.00;60.10;;;;;;5054243;28;20163;-66
2022/07/15 13:13:24;;;;;;;5.03;1.80;;;25.80;60.20;;;;;;5053006;28;20095;-66